createdAt,value
2023-02-09T00:08:59.492Z,37.50
2023-02-09T00:19:03.094Z,37.00
2023-02-09T00:29:08.777Z,37.30
2023-02-09T00:39:16.253Z,38.60
2023-02-09T00:49:20.391Z,38.90
2023-02-09T00:59:23.967Z,39.70
2023-02-09T01:09:29.949Z,38.00
2023-02-09T01:19:35.024Z,38.70
2023-02-09T01:29:42.520Z,42.10
2023-02-09T01:39:48.826Z,39.70
2023-02-09T01:49:54.467Z,36.40
2023-02-09T02:00:07.937Z,36.20
2023-02-09T02:10:17.779Z,34.10
2023-02-09T02:20:51.806Z,36.10
2023-02-09T02:31:13.887Z,35.70
2023-02-09T02:42:02.292Z,35.00
2023-02-09T02:52:10.963Z,35.50
2023-02-09T03:02:34.268Z,36.70
2023-02-09T03:12:54.804Z,37.50
2023-02-09T03:23:02.974Z,36.00
2023-02-09T03:33:25.123Z,38.60
2023-02-09T03:43:49.707Z,34.80
2023-02-09T03:53:53.700Z,40.60
2023-02-09T04:03:59.193Z,40.10
2023-02-09T04:14:04.937Z,40.70
2023-02-09T04:24:09.171Z,38.80
2023-02-09T04:34:17.197Z,36.80
2023-02-09T04:44:21.488Z,35.90
2023-02-09T04:54:25.023Z,40.30
2023-02-09T05:04:30.258Z,42.00
2023-02-09T05:14:36.561Z,42.70
2023-02-09T05:24:42.012Z,44.00
2023-02-09T05:34:45.769Z,48.80
2023-02-09T05:44:53.379Z,52.10
2023-02-09T05:54:57.010Z,51.50
2023-02-09T06:05:00.638Z,61.00
2023-02-09T06:15:10.254Z,64.50
2023-02-09T06:25:13.788Z,62.80
2023-02-09T06:35:17.475Z,60.60
2023-02-09T06:45:21.025Z,68.70
2023-02-09T06:55:24.642Z,66.90
2023-02-09T07:05:28.247Z,59.50
2023-02-09T07:15:34.063Z,63.40
2023-02-09T07:25:37.595Z,65.00
2023-02-09T07:35:43.392Z,65.80
2023-02-09T07:45:48.325Z,80.90
2023-02-09T07:55:51.843Z,66.30
2023-02-09T08:06:00.816Z,75.40
2023-02-09T08:16:07.913Z,64.10
2023-02-09T08:26:14.182Z,64.40
2023-02-09T08:36:20.187Z,61.80
2023-02-09T08:46:26.156Z,59.10
2023-02-09T08:56:30.136Z,64.50
2023-02-09T09:06:34.958Z,58.30
2023-02-09T09:16:40.478Z,54.90
2023-02-09T09:26:44.136Z,51.80
2023-02-09T09:36:50.757Z,57.10
2023-02-09T09:46:55.056Z,53.00
2023-02-09T09:56:59.365Z,52.30
2023-02-09T10:07:14.679Z,49.60
2023-02-09T10:17:18.232Z,50.70
2023-02-09T10:27:31.346Z,50.40
2023-02-09T10:37:39.815Z,53.00
2023-02-09T10:47:57.693Z,49.90
2023-02-09T10:58:10.881Z,53.60
2023-02-09T11:08:14.492Z,49.50
2023-02-09T11:18:25.745Z,43.90
2023-02-09T11:28:39.446Z,34.50
2023-02-09T11:38:53.190Z,36.10
2023-02-09T11:49:15.730Z,32.50
2023-02-09T11:59:31.636Z,33.50
2023-02-09T12:10:14.753Z,32.30
2023-02-09T12:20:46.284Z,32.90
2023-02-09T12:30:50.120Z,35.10
2023-02-09T12:41:13.302Z,35.00
2023-02-09T12:51:53.579Z,35.80
2023-02-09T13:02:06.117Z,36.70
2023-02-09T13:12:29.263Z,41.20
2023-02-09T13:23:10.246Z,39.70
2023-02-09T13:33:41.645Z,43.30
2023-02-09T13:43:47.162Z,40.70
2023-02-09T13:54:02.288Z,36.00
2023-02-09T14:04:05.969Z,34.20
2023-02-09T14:14:59.278Z,37.70
2023-02-09T14:25:20.533Z,39.70
2023-02-09T14:35:26.536Z,31.30
2023-02-09T14:45:44.637Z,37.40
2023-02-09T14:55:48.928Z,41.80
2023-02-09T15:06:03.221Z,44.00
2023-02-09T15:16:09.180Z,46.50
2023-02-09T15:26:22.869Z,48.70
2023-02-09T15:36:27.041Z,48.30
2023-02-09T15:46:51.274Z,55.70
2023-02-09T15:56:56.871Z,54.80
2023-02-09T16:07:00.495Z,62.50
2023-02-09T16:17:08.989Z,63.30
2023-02-09T16:27:31.132Z,69.80
2023-02-09T16:37:37.240Z,72.70
2023-02-09T16:47:45.710Z,68.60
2023-02-09T16:57:54.978Z,72.10
2023-02-09T17:08:03.531Z,71.70
2023-02-09T17:18:09.682Z,74.50
2023-02-09T17:28:14.479Z,75.50
2023-02-09T17:38:23.393Z,75.70
2023-02-09T17:48:27.084Z,74.90
2023-02-09T17:58:30.846Z,78.00
2023-02-09T18:08:36.027Z,79.10
2023-02-09T18:18:43.343Z,75.70
2023-02-09T18:28:46.822Z,77.40
2023-02-09T18:38:55.223Z,77.00
2023-02-09T18:48:59.077Z,75.90
2023-02-09T18:59:04.792Z,76.20
2023-02-09T19:09:10.924Z,84.90
2023-02-09T19:19:16.483Z,76.80
2023-02-09T19:29:20.421Z,75.90
2023-02-09T19:39:31.172Z,72.10
2023-02-09T19:49:35.359Z,73.80
2023-02-09T19:59:39.029Z,75.80
2023-02-09T20:09:42.965Z,72.80
2023-02-09T20:19:46.786Z,75.30
2023-02-09T20:30:51.653Z,60.30
2023-02-09T20:40:55.268Z,61.20
2023-02-09T20:50:58.869Z,60.50
2023-02-09T21:01:06.219Z,59.80
2023-02-09T21:11:10.284Z,61.40
2023-02-09T21:21:19.282Z,58.50
2023-02-09T21:31:26.674Z,56.30
2023-02-09T21:41:49.191Z,55.40
2023-02-09T21:51:52.871Z,53.70
2023-02-09T22:01:57.414Z,53.30
2023-02-09T22:12:05.363Z,57.40
2023-02-09T22:22:10.916Z,116.40
2023-02-09T22:32:14.434Z,110.80
2023-02-09T22:42:18.836Z,81.00
2023-02-09T22:52:22.605Z,64.20
2023-02-09T23:02:26.285Z,53.60
2023-02-09T23:12:29.933Z,53.80
2023-02-09T23:22:33.673Z,51.50
2023-02-09T23:32:37.317Z,50.00
2023-02-09T23:42:40.932Z,49.70
2023-02-09T23:52:44.543Z,45.90
